Terminal Aerodrome Forecast
Issued by NWS Cleveland, OH

Home | Current Version | Previous Version | Graphics & Text | Print | Product List | Glossary On
Versions: 1 2 3 4 5 6 7 8 9 10 11 12 13 14 15 16 17 18
271
FTUS41 KCLE 171140
TAFERI
TAF
KERI 171140Z 1712/1812 22006KT 6SM -SN OVC012
      TEMPO 1712/1714 4SM -SHSN
     FM171800 23012KT P6SM SCT020
     FM172000 25012G20KT P6SM BKN035
     FM180200 22015G25KT P6SM SCT025 BKN150=

USA.gov is the U.S. government's official web portal to all federal, state and local government web resources and services.